createdAt,value
2019-05-17T00:00:42.526Z,16.60
2019-05-17T00:03:17.062Z,16.60
2019-05-17T00:05:48.633Z,16.60
2019-05-17T00:08:30.963Z,16.70
2019-05-17T00:10:53.114Z,16.70
2019-05-17T00:13:26.744Z,16.70
2019-05-17T00:15:57.947Z,16.70
2019-05-17T00:18:29.324Z,16.70
2019-05-17T00:21:00.892Z,16.70
2019-05-17T00:23:32.528Z,16.70
2019-05-17T00:26:04.089Z,16.70
2019-05-17T00:28:37.449Z,16.70
2019-05-17T00:31:08.786Z,16.70
2019-05-17T00:33:40.224Z,16.70
2019-05-17T00:36:11.490Z,16.70
2019-05-17T00:38:48.217Z,16.70
2019-05-17T00:41:17.620Z,16.80
2019-05-17T00:43:49.416Z,16.70
2019-05-17T00:46:20.721Z,16.80
2019-05-17T00:48:52.089Z,16.70
2019-05-17T00:51:27.247Z,16.70
2019-05-17T00:53:58.605Z,16.70
2019-05-17T00:56:30.197Z,16.70
2019-05-17T00:59:01.617Z,16.70
2019-05-17T01:01:33.893Z,16.70
2019-05-17T01:04:06.916Z,16.70
2019-05-17T01:06:38.568Z,16.70
2019-05-17T01:09:09.788Z,16.70
2019-05-17T01:11:41.116Z,16.70
2019-05-17T01:14:12.624Z,16.70
2019-05-17T01:16:44.120Z,16.60
2019-05-17T01:19:16.437Z,16.60
2019-05-17T01:21:48.378Z,16.60
2019-05-17T01:24:19.839Z,16.60
2019-05-17T01:26:51.602Z,16.60
2019-05-17T01:29:23.120Z,16.60
2019-05-17T01:31:56.956Z,16.60
2019-05-17T01:34:27.793Z,16.50
2019-05-17T01:36:59.197Z,16.50
2019-05-17T01:39:33.474Z,16.50
2019-05-17T01:42:04.065Z,16.50
2019-05-17T01:44:36.721Z,16.50
2019-05-17T01:47:08.426Z,16.50
2019-05-17T01:49:39.836Z,16.60
2019-05-17T01:52:11.120Z,16.60
2019-05-17T01:54:42.422Z,16.60
2019-05-17T01:57:13.866Z,16.60
2019-05-17T01:59:46.670Z,16.60
2019-05-17T02:02:27.011Z,16.60
2019-05-17T02:04:58.384Z,16.60
2019-05-17T02:07:29.774Z,16.60
2019-05-17T02:10:01.048Z,16.60
2019-05-17T02:12:32.213Z,16.60
2019-05-17T02:15:06.976Z,16.60
2019-05-17T02:17:38.741Z,16.60
2019-05-17T02:20:10.685Z,16.50
2019-05-17T02:22:42.109Z,16.50
2019-05-17T02:25:13.977Z,16.50
2019-05-17T02:27:45.257Z,16.40
2019-05-17T02:30:17.309Z,16.40
2019-05-17T02:32:48.791Z,16.40
2019-05-17T02:35:22.878Z,16.40
2019-05-17T02:37:53.638Z,16.40
2019-05-17T02:40:25.110Z,16.30
2019-05-17T02:42:56.572Z,16.30
2019-05-17T02:45:28.052Z,16.30
2019-05-17T02:48:03.261Z,16.30
2019-05-17T02:50:33.424Z,16.30
2019-05-17T02:53:05.526Z,16.30
2019-05-17T02:55:37.169Z,16.40
2019-05-17T02:58:08.664Z,16.40
2019-05-17T03:00:43.980Z,16.40
2019-05-17T03:03:13.750Z,16.50
2019-05-17T03:05:45.313Z,16.50
2019-05-17T03:08:16.825Z,16.50
2019-05-17T03:10:48.586Z,16.50
2019-05-17T03:13:23.191Z,16.50
2019-05-17T03:15:53.297Z,16.50
2019-05-17T03:18:24.663Z,16.50
2019-05-17T03:20:56.164Z,16.50
2019-05-17T03:23:27.870Z,16.50
2019-05-17T03:25:59.177Z,16.50
2019-05-17T03:28:33.566Z,16.50
2019-05-17T03:31:08.221Z,16.50
2019-05-17T03:33:37.431Z,16.60
2019-05-17T03:36:08.845Z,16.60
2019-05-17T03:38:43.093Z,16.50
2019-05-17T03:41:23.395Z,16.50
2019-05-17T03:43:47.096Z,16.50
2019-05-17T03:46:18.576Z,16.50
2019-05-17T03:48:52.885Z,16.50
2019-05-17T03:51:23.464Z,16.60
2019-05-17T03:53:55.059Z,16.50
2019-05-17T03:56:26.608Z,16.60
2019-05-17T03:58:57.922Z,16.60
2019-05-17T04:01:32.586Z,16.70
2019-05-17T04:04:03.186Z,16.70
2019-05-17T04:06:34.639Z,16.80
2019-05-17T04:09:06.713Z,16.90
2019-05-17T04:11:38.575Z,17.00
2019-05-17T04:14:13.628Z,17.10
2019-05-17T04:16:43.392Z,17.10
2019-05-17T04:19:14.643Z,17.20
2019-05-17T04:21:45.821Z,17.20
2019-05-17T04:24:17.463Z,17.30
2019-05-17T04:26:52.022Z,17.30
2019-05-17T04:29:22.800Z,17.40
2019-05-17T04:31:54.722Z,17.50
2019-05-17T04:34:26.098Z,17.60
2019-05-17T04:36:57.746Z,17.60
2019-05-17T04:39:29.017Z,17.70
2019-05-17T04:42:03.738Z,17.70
2019-05-17T04:44:35.423Z,17.80
2019-05-17T04:47:06.710Z,17.80
2019-05-17T04:49:38.155Z,17.80
2019-05-17T04:52:09.662Z,17.80
2019-05-17T04:54:42.538Z,17.80
2019-05-17T04:57:14.126Z,17.80
2019-05-17T04:59:45.653Z,17.80
2019-05-17T05:02:19.075Z,17.80
2019-05-17T05:04:53.174Z,17.90
2019-05-17T05:07:24.588Z,17.90
2019-05-17T05:09:55.813Z,18.00
2019-05-17T05:12:28.003Z,18.10
2019-05-17T05:14:59.613Z,18.20
2019-05-17T05:17:32.837Z,18.30
2019-05-17T05:20:05.630Z,18.40
2019-05-17T05:22:37.286Z,18.50
2019-05-17T05:25:08.672Z,18.70
2019-05-17T05:27:42.283Z,19.00
2019-05-17T05:30:13.478Z,19.30
2019-05-17T05:32:44.782Z,19.50
2019-05-17T05:35:16.179Z,19.80
2019-05-17T05:37:47.545Z,19.80
2019-05-17T05:40:18.897Z,19.70
2019-05-17T05:42:51.572Z,19.70
2019-05-17T05:45:23.641Z,19.60
2019-05-17T05:47:55.459Z,19.50
2019-05-17T05:50:27.121Z,19.50
2019-05-17T05:52:58.448Z,19.40
2019-05-17T05:55:32.182Z,19.40
2019-05-17T05:58:03.267Z,19.30
2019-05-17T06:00:34.832Z,19.20
2019-05-17T06:03:06.307Z,19.20
2019-05-17T06:05:37.713Z,19.10
2019-05-17T06:08:09.099Z,19.00
2019-05-17T06:10:42.519Z,18.90
2019-05-17T06:13:14.025Z,18.90
2019-05-17T06:15:45.753Z,18.90
2019-05-17T06:18:17.449Z,19.00
2019-05-17T06:20:49.013Z,18.90
2019-05-17T06:23:20.424Z,19.00
2019-05-17T06:25:52.228Z,19.20
2019-05-17T06:28:24.166Z,19.70
2019-05-17T06:30:55.735Z,20.10
2019-05-17T06:33:31.061Z,20.40
2019-05-17T06:36:02.768Z,20.50
2019-05-17T06:38:34.198Z,20.50
2019-05-17T06:41:05.919Z,20.40
2019-05-17T06:43:38.549Z,20.30
2019-05-17T06:46:12.238Z,20.20
2019-05-17T06:48:43.531Z,20.20
2019-05-17T06:51:15.125Z,20.10
2019-05-17T06:53:46.424Z,20.10
2019-05-17T06:56:18.956Z,20.00
2019-05-17T06:58:50.415Z,20.00
2019-05-17T07:01:21.847Z,20.00
2019-05-17T07:03:53.262Z,20.00
2019-05-17T07:06:26.449Z,20.10
2019-05-17T07:09:00.841Z,20.00
2019-05-17T07:11:31.934Z,20.00
2019-05-17T07:14:03.423Z,19.90
2019-05-17T07:16:34.757Z,19.90
2019-05-17T07:19:06.505Z,19.90
2019-05-17T07:21:40.202Z,19.90
2019-05-17T07:24:11.278Z,20.00
2019-05-17T07:26:42.872Z,20.00
2019-05-17T07:29:14.180Z,20.10
2019-05-17T07:31:45.896Z,20.20
2019-05-17T07:34:17.165Z,20.40
2019-05-17T07:36:50.379Z,20.60
2019-05-17T07:39:22.881Z,21.00
2019-05-17T07:41:54.581Z,21.30
2019-05-17T07:44:25.963Z,21.60
2019-05-17T07:46:57.399Z,22.00
2019-05-17T07:49:29.498Z,22.20
2019-05-17T07:52:01.149Z,22.50
2019-05-17T07:54:32.471Z,22.60
2019-05-17T07:57:03.938Z,22.70
2019-05-17T07:59:35.299Z,22.60
2019-05-17T08:02:06.938Z,22.60
2019-05-17T08:04:40.687Z,22.60
2019-05-17T08:07:11.661Z,22.60
2019-05-17T08:09:43.294Z,22.60
2019-05-17T08:12:15.190Z,22.70
2019-05-17T08:14:46.487Z,22.80
2019-05-17T08:17:19.828Z,23.00
2019-05-17T08:19:51.315Z,23.30
2019-05-17T08:22:22.748Z,23.60
2019-05-17T08:24:54.209Z,23.80
2019-05-17T08:27:25.942Z,23.80
2019-05-17T08:29:59.733Z,23.70
2019-05-17T08:32:31.631Z,23.50
2019-05-17T08:35:04.205Z,23.40
2019-05-17T08:37:36.074Z,23.40
2019-05-17T08:40:10.496Z,23.50
2019-05-17T08:42:41.106Z,23.50
2019-05-17T08:45:12.671Z,23.50
2019-05-17T08:47:44.293Z,23.50
2019-05-17T08:50:15.959Z,23.60
2019-05-17T08:52:49.551Z,23.90
2019-05-17T08:55:21.101Z,24.00
2019-05-17T08:57:53.543Z,24.00
2019-05-17T09:00:25.929Z,24.00
2019-05-17T09:02:59.948Z,24.20
2019-05-17T09:05:30.991Z,24.60
2019-05-17T09:08:02.675Z,25.20
2019-05-17T09:10:34.223Z,25.20
2019-05-17T09:13:05.781Z,25.20
2019-05-17T09:15:39.905Z,25.00
2019-05-17T09:18:11.300Z,25.00
2019-05-17T09:20:42.689Z,24.90
2019-05-17T09:23:14.324Z,24.90
2019-05-17T09:25:46.584Z,25.10
2019-05-17T09:28:20.328Z,25.00
2019-05-17T09:30:51.617Z,24.80
2019-05-17T09:33:23.150Z,24.50
2019-05-17T09:35:54.534Z,24.20
2019-05-17T09:38:25.757Z,23.90
2019-05-17T09:40:59.719Z,23.60
2019-05-17T09:43:30.581Z,23.40
2019-05-17T09:46:02.404Z,23.40
2019-05-17T09:48:34.062Z,23.50
2019-05-17T09:51:05.566Z,23.70
2019-05-17T09:53:36.971Z,23.80
2019-05-17T09:56:09.920Z,23.90
2019-05-17T09:58:41.523Z,24.00
2019-05-17T10:01:12.978Z,24.20
2019-05-17T10:03:44.596Z,24.40
2019-05-17T10:06:16.170Z,24.50
2019-05-17T10:08:49.464Z,24.60
2019-05-17T10:11:21.296Z,24.70
2019-05-17T10:13:52.852Z,24.70
2019-05-17T10:16:24.981Z,24.70
2019-05-17T10:18:56.715Z,25.10
2019-05-17T10:21:30.385Z,25.50
2019-05-17T10:24:01.751Z,25.60
2019-05-17T10:26:33.259Z,25.40
2019-05-17T10:29:05.010Z,25.10
2019-05-17T10:31:36.432Z,24.80
2019-05-17T10:34:09.694Z,24.40
2019-05-17T10:36:41.445Z,24.10
2019-05-17T10:39:12.919Z,23.90
2019-05-17T10:41:44.141Z,23.70
2019-05-17T10:44:15.513Z,23.50
2019-05-17T10:46:46.853Z,23.30
2019-05-17T10:49:20.159Z,23.20
2019-05-17T10:51:51.296Z,23.20
2019-05-17T10:54:22.997Z,23.20
2019-05-17T10:56:54.606Z,23.20
2019-05-17T10:59:27.150Z,23.30
2019-05-17T11:01:59.670Z,23.40
2019-05-17T11:04:31.142Z,23.50
2019-05-17T11:07:04.250Z,23.70
2019-05-17T11:09:36.399Z,23.80
2019-05-17T11:12:08.114Z,24.00
2019-05-17T11:14:50.781Z,24.30
2019-05-17T11:17:12.813Z,24.70
2019-05-17T11:19:44.316Z,25.00
2019-05-17T11:22:15.912Z,25.20
2019-05-17T11:24:47.393Z,25.10
2019-05-17T11:27:18.737Z,24.90
2019-05-17T11:29:50.123Z,24.80
2019-05-17T11:32:22.787Z,24.70
2019-05-17T11:34:54.288Z,24.60
2019-05-17T11:37:25.619Z,24.40
2019-05-17T11:39:57.075Z,24.40
2019-05-17T11:42:28.429Z,24.30
2019-05-17T11:45:00.103Z,24.40
2019-05-17T11:47:31.673Z,24.60
2019-05-17T11:50:05.157Z,24.50
2019-05-17T11:52:36.442Z,24.20
2019-05-17T11:55:07.814Z,24.00
2019-05-17T11:57:39.140Z,23.80
2019-05-17T12:00:12.458Z,23.90
2019-05-17T12:02:43.734Z,24.20
2019-05-17T12:05:15.345Z,24.60
2019-05-17T12:07:46.816Z,25.10
2019-05-17T12:10:18.360Z,25.80
2019-05-17T12:12:49.806Z,26.30
2019-05-17T12:15:21.197Z,26.70
2019-05-17T12:17:52.426Z,26.50
2019-05-17T12:20:23.945Z,26.20
2019-05-17T12:22:55.393Z,25.70
2019-05-17T12:25:26.906Z,25.20
2019-05-17T12:27:58.206Z,24.80
2019-05-17T12:30:29.661Z,24.40
2019-05-17T12:33:01.175Z,24.20
2019-05-17T12:35:32.685Z,24.00
2019-05-17T12:38:04.329Z,23.80
2019-05-17T12:40:35.535Z,23.70
2019-05-17T12:43:06.917Z,23.60
2019-05-17T12:45:38.466Z,23.70
2019-05-17T12:48:09.772Z,24.00
2019-05-17T12:50:41.200Z,24.50
2019-05-17T12:53:13.712Z,24.70
2019-05-17T12:55:45.159Z,24.80
2019-05-17T12:58:16.483Z,24.80
2019-05-17T13:00:47.723Z,24.60
2019-05-17T13:03:19.110Z,24.20
2019-05-17T13:05:50.637Z,23.90
2019-05-17T13:08:23.053Z,23.60
2019-05-17T13:10:54.887Z,23.30
2019-05-17T13:13:26.261Z,23.20
2019-05-17T13:15:57.599Z,23.20
2019-05-17T13:18:28.801Z,23.10
2019-05-17T13:21:00.120Z,23.20
2019-05-17T13:23:31.443Z,23.10
2019-05-17T13:26:02.963Z,23.10
2019-05-17T13:28:34.349Z,23.10
2019-05-17T13:31:05.656Z,23.00
2019-05-17T13:33:37.140Z,22.90
2019-05-17T13:36:08.575Z,22.80
2019-05-17T13:38:40.144Z,22.70
2019-05-17T13:41:11.579Z,22.50
2019-05-17T13:43:42.964Z,22.40
2019-05-17T13:46:14.502Z,22.20
2019-05-17T13:48:45.821Z,22.10
2019-05-17T13:51:17.186Z,22.00
2019-05-17T13:53:48.477Z,21.90
2019-05-17T13:56:20.401Z,21.80
2019-05-17T13:58:51.936Z,21.70
2019-05-17T14:01:23.242Z,21.60
2019-05-17T14:03:54.527Z,21.50
2019-05-17T14:06:26.006Z,21.50
2019-05-17T14:08:57.208Z,21.50
2019-05-17T14:11:28.525Z,21.40
2019-05-17T14:14:00.009Z,21.30
2019-05-17T14:16:34.279Z,21.30
2019-05-17T14:19:04.392Z,21.20
2019-05-17T14:21:35.725Z,21.10
2019-05-17T14:24:07.182Z,21.00
2019-05-17T14:26:38.705Z,20.90
2019-05-17T14:29:10.112Z,20.70
2019-05-17T14:31:41.542Z,20.60
2019-05-17T14:34:12.948Z,20.50
2019-05-17T14:36:44.368Z,20.40
2019-05-17T14:39:15.768Z,20.30
2019-05-17T14:41:47.050Z,20.20
2019-05-17T14:44:18.403Z,20.20
2019-05-17T14:46:49.724Z,20.20
2019-05-17T14:49:21.116Z,20.40
2019-05-17T14:51:52.599Z,20.60
2019-05-17T14:54:23.965Z,20.80
2019-05-17T14:56:55.335Z,21.00
2019-05-17T14:59:26.633Z,21.20
2019-05-17T15:01:57.814Z,21.40
2019-05-17T15:04:29.169Z,21.60
2019-05-17T15:07:00.351Z,21.80
2019-05-17T15:09:31.694Z,21.90
2019-05-17T15:12:03.042Z,21.90
2019-05-17T15:14:34.290Z,22.00
2019-05-17T15:17:05.619Z,22.00
2019-05-17T15:19:37.071Z,22.00
2019-05-17T15:22:08.501Z,22.10
2019-05-17T15:24:40.050Z,22.10
2019-05-17T15:27:11.509Z,22.10
2019-05-17T15:29:55.997Z,22.10
2019-05-17T15:32:28.218Z,22.10
2019-05-17T15:34:59.968Z,22.20
2019-05-17T15:37:31.504Z,22.20
2019-05-17T15:40:06.244Z,22.30
2019-05-17T15:42:44.011Z,22.30
2019-05-17T15:45:10.876Z,22.30
2019-05-17T15:47:42.568Z,22.30
2019-05-17T15:50:14.405Z,22.30
2019-05-17T15:52:47.459Z,22.20
2019-05-17T15:55:18.877Z,22.10
2019-05-17T15:57:51.035Z,22.10
2019-05-17T16:00:22.574Z,21.90
2019-05-17T16:02:54.028Z,21.90
2019-05-17T16:05:26.558Z,21.80
2019-05-17T16:07:57.874Z,21.80
2019-05-17T16:10:29.338Z,21.70
2019-05-17T16:13:02.741Z,21.70
2019-05-17T16:15:34.021Z,21.60
2019-05-17T16:18:05.360Z,21.60
2019-05-17T16:20:36.639Z,21.60
2019-05-17T16:23:07.876Z,21.50
2019-05-17T16:25:39.773Z,21.50
2019-05-17T16:28:11.420Z,21.50
2019-05-17T16:30:42.887Z,21.50
2019-05-17T16:33:14.230Z,21.50
2019-05-17T16:35:45.647Z,21.40
2019-05-17T16:38:16.905Z,21.40
2019-05-17T16:40:48.548Z,21.40
2019-05-17T16:43:20.227Z,21.40
2019-05-17T16:45:52.062Z,21.30
2019-05-17T16:48:25.825Z,21.30
2019-05-17T16:50:57.119Z,21.20
2019-05-17T16:53:28.403Z,21.20
2019-05-17T16:56:00.789Z,21.20
2019-05-17T16:58:32.150Z,21.10
2019-05-17T17:01:03.868Z,21.10
2019-05-17T17:03:44.269Z,21.10
2019-05-17T17:06:10.473Z,21.00
2019-05-17T17:08:42.429Z,21.00
2019-05-17T17:11:13.900Z,20.90
2019-05-17T17:13:45.325Z,20.90
2019-05-17T17:16:16.770Z,20.90
2019-05-17T17:18:48.074Z,20.90
2019-05-17T17:21:19.458Z,20.90
2019-05-17T17:23:51.199Z,20.80
2019-05-17T17:26:22.885Z,20.80
2019-05-17T17:28:54.546Z,20.70
2019-05-17T17:31:25.974Z,20.70
2019-05-17T17:33:57.343Z,20.60
2019-05-17T17:36:28.943Z,20.50
2019-05-17T17:39:00.609Z,20.40
2019-05-17T17:41:32.250Z,20.40
2019-05-17T17:44:03.734Z,20.20
2019-05-17T17:46:35.295Z,20.10
2019-05-17T17:49:06.843Z,20.00
2019-05-17T17:51:38.281Z,19.90
2019-05-17T17:54:09.843Z,19.80
2019-05-17T17:56:41.500Z,19.70
2019-05-17T17:59:12.825Z,19.60
2019-05-17T18:01:44.608Z,19.50
2019-05-17T18:04:16.105Z,19.40
2019-05-17T18:06:47.300Z,19.40
2019-05-17T18:09:18.805Z,19.30
2019-05-17T18:11:50.819Z,19.20
2019-05-17T18:14:22.148Z,19.10
2019-05-17T18:16:53.505Z,18.90
2019-05-17T18:19:24.926Z,18.80
2019-05-17T18:21:56.534Z,18.70
2019-05-17T18:24:27.880Z,18.60
2019-05-17T18:26:59.585Z,18.40
2019-05-17T18:29:30.881Z,18.30
2019-05-17T18:32:02.054Z,18.20
2019-05-17T18:34:33.585Z,18.00
2019-05-17T18:37:06.094Z,17.90
2019-05-17T18:39:37.359Z,17.80
2019-05-17T18:42:09.107Z,17.80
2019-05-17T18:44:40.716Z,17.70
2019-05-17T18:47:12.064Z,17.60
2019-05-17T18:49:43.413Z,17.60
2019-05-17T18:52:14.642Z,17.60
2019-05-17T18:54:46.078Z,17.50
2019-05-17T18:57:17.543Z,17.50
2019-05-17T18:59:48.858Z,17.50
2019-05-17T19:02:20.276Z,17.40
2019-05-17T19:04:51.710Z,17.40
2019-05-17T19:07:23.377Z,17.30
2019-05-17T19:09:54.873Z,17.20
2019-05-17T19:12:27.663Z,17.10
2019-05-17T19:15:00.735Z,17.00
2019-05-17T19:17:32.078Z,16.90
2019-05-17T19:20:04.664Z,16.80
2019-05-17T19:22:35.948Z,16.70
2019-05-17T19:25:07.897Z,16.60
2019-05-17T19:27:39.414Z,16.50
2019-05-17T19:30:11.583Z,16.50
2019-05-17T19:32:43.197Z,16.40
2019-05-17T19:35:15.169Z,16.30
2019-05-17T19:37:46.414Z,16.30
2019-05-17T19:40:17.615Z,16.20
2019-05-17T19:42:49.011Z,16.20
2019-05-17T19:45:20.200Z,16.20
2019-05-17T19:47:51.768Z,16.10
2019-05-17T19:50:23.314Z,16.10
2019-05-17T19:52:54.817Z,16.00
2019-05-17T19:55:26.438Z,16.00
2019-05-17T19:57:57.875Z,15.90
2019-05-17T20:00:29.813Z,15.80
2019-05-17T20:03:01.574Z,15.80
2019-05-17T20:05:32.971Z,15.70
2019-05-17T20:08:04.488Z,15.70
2019-05-17T20:10:35.941Z,15.60
2019-05-17T20:13:07.288Z,15.60
2019-05-17T20:15:38.901Z,15.50
2019-05-17T20:18:10.316Z,15.50
2019-05-17T20:20:42.312Z,15.50
2019-05-17T20:23:14.359Z,15.40
2019-05-17T20:25:45.733Z,15.40
2019-05-17T20:28:17.229Z,15.40
2019-05-17T20:30:48.824Z,15.40
2019-05-17T20:33:20.147Z,15.30
2019-05-17T20:35:51.699Z,15.30
2019-05-17T20:38:23.412Z,15.30
2019-05-17T20:40:54.874Z,15.20
2019-05-17T20:43:26.344Z,15.20
2019-05-17T20:45:58.094Z,15.10
2019-05-17T20:48:29.358Z,15.10
2019-05-17T20:51:00.721Z,15.10
2019-05-17T20:53:32.509Z,15.00
2019-05-17T20:56:03.795Z,15.00
2019-05-17T20:58:35.629Z,14.90
2019-05-17T21:01:07.140Z,14.90
2019-05-17T21:03:38.524Z,14.90
2019-05-17T21:06:09.838Z,14.90
2019-05-17T21:08:45.995Z,14.90
2019-05-17T21:11:14.540Z,14.90
2019-05-17T21:13:46.194Z,15.00
2019-05-17T21:16:18.786Z,15.00
2019-05-17T21:18:50.541Z,15.00
2019-05-17T21:21:21.888Z,15.00
2019-05-17T21:23:53.520Z,15.10
2019-05-17T21:26:25.144Z,15.10
2019-05-17T21:28:56.725Z,15.10
2019-05-17T21:31:28.048Z,15.10
2019-05-17T21:33:59.548Z,15.10
2019-05-17T21:36:30.809Z,15.20
2019-05-17T21:39:04.029Z,15.10
2019-05-17T21:41:35.693Z,15.10
2019-05-17T21:44:07.253Z,15.10
2019-05-17T21:46:38.661Z,15.10
2019-05-17T21:49:10.450Z,15.10
2019-05-17T21:51:42.007Z,15.10
2019-05-17T21:54:13.462Z,15.10
2019-05-17T21:56:45.195Z,15.10
2019-05-17T21:59:16.821Z,15.00
2019-05-17T22:01:49.580Z,15.10
2019-05-17T22:04:20.939Z,15.10
2019-05-17T22:06:52.626Z,15.10
2019-05-17T22:09:24.283Z,15.10
2019-05-17T22:11:58.520Z,15.20
2019-05-17T22:14:30.008Z,15.20
2019-05-17T22:17:01.861Z,15.30
2019-05-17T22:19:33.557Z,15.30
2019-05-17T22:22:04.891Z,15.30
2019-05-17T22:24:36.298Z,15.30
2019-05-17T22:27:08.041Z,15.20
2019-05-17T22:29:39.526Z,15.20
2019-05-17T22:32:11.085Z,15.20
2019-05-17T22:34:42.545Z,15.10
2019-05-17T22:37:17.014Z,15.00
2019-05-17T22:39:47.477Z,15.00
2019-05-17T22:42:19.113Z,14.90
2019-05-17T22:44:50.661Z,14.80
2019-05-17T22:47:23.194Z,14.70
2019-05-17T22:49:54.669Z,14.60
2019-05-17T22:52:26.198Z,14.60
2019-05-17T22:54:57.510Z,14.50
2019-05-17T22:57:28.934Z,14.50
2019-05-17T23:00:00.249Z,14.40
2019-05-17T23:02:31.582Z,14.30
2019-05-17T23:05:03.786Z,14.30
2019-05-17T23:07:35.492Z,14.20
2019-05-17T23:10:07.034Z,14.20
2019-05-17T23:12:38.439Z,14.20
2019-05-17T23:15:09.816Z,14.10
2019-05-17T23:17:41.078Z,14.10
2019-05-17T23:20:12.677Z,14.10
2019-05-17T23:22:44.074Z,14.10
2019-05-17T23:25:15.599Z,14.10
2019-05-17T23:27:47.703Z,14.10
2019-05-17T23:30:19.021Z,14.10
2019-05-17T23:32:50.335Z,14.10
2019-05-17T23:35:21.746Z,14.10
2019-05-17T23:37:53.121Z,14.10
2019-05-17T23:40:24.684Z,14.10
2019-05-17T23:42:56.161Z,14.20
2019-05-17T23:45:27.724Z,14.20
2019-05-17T23:47:59.269Z,14.30
2019-05-17T23:50:30.567Z,14.40
2019-05-17T23:53:02.132Z,14.50
2019-05-17T23:55:33.544Z,14.50
2019-05-17T23:58:05.049Z,14.50
